sensor_id;sensor_type;location;lat;lon;timestamp;P1;durP1;ratioP1;P2;durP2;ratioP2
37937;SDS011;23763;48.130;11.602;2023-12-22T00:01:18;5.13;;;4.82;;
37937;SDS011;23763;48.130;11.602;2023-12-22T00:03:43;5.40;;;5.10;;
37937;SDS011;23763;48.130;11.602;2023-12-22T00:06:12;5.38;;;5.18;;
37937;SDS011;23763;48.130;11.602;2023-12-22T00:08:38;6.03;;;5.72;;
37937;SDS011;23763;48.130;11.602;2023-12-22T00:11:03;5.50;;;5.30;;
37937;SDS011;23763;48.130;11.602;2023-12-22T00:13:29;6.25;;;5.80;;
37937;SDS011;23763;48.130;11.602;2023-12-22T00:15:57;7.82;;;5.25;;
37937;SDS011;23763;48.130;11.602;2023-12-22T00:18:23;5.80;;;5.60;;
37937;SDS011;23763;48.130;11.602;2023-12-22T00:20:49;6.40;;;6.10;;
37937;SDS011;23763;48.130;11.602;2023-12-22T00:23:14;6.57;;;6.37;;
37937;SDS011;23763;48.130;11.602;2023-12-22T00:25:40;6.80;;;6.50;;
37937;SDS011;23763;48.130;11.602;2023-12-22T00:28:06;6.70;;;6.50;;
37937;SDS011;23763;48.130;11.602;2023-12-22T00:30:31;7.07;;;6.87;;
37937;SDS011;23763;48.130;11.602;2023-12-22T00:32:57;7.00;;;6.80;;
37937;SDS011;23763;48.130;11.602;2023-12-22T00:35:22;6.93;;;6.63;;
37937;SDS011;23763;48.130;11.602;2023-12-22T00:37:48;7.13;;;6.83;;
37937;SDS011;23763;48.130;11.602;2023-12-22T00:40:14;7.20;;;7.00;;
37937;SDS011;23763;48.130;11.602;2023-12-22T00:42:39;6.83;;;6.63;;
37937;SDS011;23763;48.130;11.602;2023-12-22T00:45:05;7.43;;;7.03;;
37937;SDS011;23763;48.130;11.602;2023-12-22T00:47:31;7.07;;;6.87;;
37937;SDS011;23763;48.130;11.602;2023-12-22T00:49:59;6.97;;;6.77;;
37937;SDS011;23763;48.130;11.602;2023-12-22T00:52:25;6.90;;;6.70;;
37937;SDS011;23763;48.130;11.602;2023-12-22T00:54:51;7.20;;;7.00;;
37937;SDS011;23763;48.130;11.602;2023-12-22T00:57:17;7.50;;;7.20;;
37937;SDS011;23763;48.130;11.602;2023-12-22T00:59:42;7.70;;;7.40;;
37937;SDS011;23763;48.130;11.602;2023-12-22T01:02:12;7.20;;;6.97;;
37937;SDS011;23763;48.130;11.602;2023-12-22T01:04:39;7.43;;;6.97;;
37937;SDS011;23763;48.130;11.602;2023-12-22T01:07:04;7.33;;;7.03;;
37937;SDS011;23763;48.130;11.602;2023-12-22T01:09:33;6.90;;;6.70;;
37937;SDS011;23763;48.130;11.602;2023-12-22T01:11:58;6.73;;;6.53;;
37937;SDS011;23763;48.130;11.602;2023-12-22T01:14:27;7.10;;;6.80;;
37937;SDS011;23763;48.130;11.602;2023-12-22T01:16:53;7.33;;;7.03;;
37937;SDS011;23763;48.130;11.602;2023-12-22T01:19:18;7.10;;;6.90;;
37937;SDS011;23763;48.130;11.602;2023-12-22T01:21:44;7.50;;;7.10;;
37937;SDS011;23763;48.130;11.602;2023-12-22T01:24:10;7.17;;;6.97;;
37937;SDS011;23763;48.130;11.602;2023-12-22T01:26:35;7.13;;;6.83;;
37937;SDS011;23763;48.130;11.602;2023-12-22T01:29:01;7.10;;;6.80;;
37937;SDS011;23763;48.130;11.602;2023-12-22T01:31:26;7.23;;;6.97;;
37937;SDS011;23763;48.130;11.602;2023-12-22T01:33:52;7.10;;;6.80;;
37937;SDS011;23763;48.130;11.602;2023-12-22T01:36:18;7.57;;;7.27;;
37937;SDS011;23763;48.130;11.602;2023-12-22T01:38:43;7.23;;;6.93;;
37937;SDS011;23763;48.130;11.602;2023-12-22T01:41:09;7.63;;;7.33;;
37937;SDS011;23763;48.130;11.602;2023-12-22T01:43:34;7.67;;;7.37;;
37937;SDS011;23763;48.130;11.602;2023-12-22T01:46:00;7.63;;;7.37;;
37937;SDS011;23763;48.130;11.602;2023-12-22T01:48:27;7.10;;;6.90;;
37937;SDS011;23763;48.130;11.602;2023-12-22T01:50:53;7.07;;;6.87;;
37937;SDS011;23763;48.130;11.602;2023-12-22T01:53:21;7.30;;;7.00;;
37937;SDS011;23763;48.130;11.602;2023-12-22T01:55:50;6.83;;;6.63;;
37937;SDS011;23763;48.130;11.602;2023-12-22T01:58:18;7.20;;;6.90;;
37937;SDS011;23763;48.130;11.602;2023-12-22T02:00:44;6.90;;;6.70;;
37937;SDS011;23763;48.130;11.602;2023-12-22T02:03:11;6.97;;;6.77;;
37937;SDS011;23763;48.130;11.602;2023-12-22T02:05:37;7.23;;;7.03;;
37937;SDS011;23763;48.130;11.602;2023-12-22T02:08:05;7.23;;;6.93;;
37937;SDS011;23763;48.130;11.602;2023-12-22T02:10:31;7.30;;;7.00;;
37937;SDS011;23763;48.130;11.602;2023-12-22T02:12:56;7.47;;;7.27;;
37937;SDS011;23763;48.130;11.602;2023-12-22T02:15:22;7.00;;;6.80;;
37937;SDS011;23763;48.130;11.602;2023-12-22T02:17:48;6.80;;;6.60;;
37937;SDS011;23763;48.130;11.602;2023-12-22T02:20:21;7.30;;;7.00;;
37937;SDS011;23763;48.130;11.602;2023-12-22T02:22:53;7.13;;;6.50;;
37937;SDS011;23763;48.130;11.602;2023-12-22T02:25:19;6.80;;;6.60;;
37937;SDS011;23763;48.130;11.602;2023-12-22T02:27:48;6.60;;;6.40;;
37937;SDS011;23763;48.130;11.602;2023-12-22T02:32:59;6.70;;;6.50;;
37937;SDS011;23763;48.130;11.602;2023-12-22T02:35:28;6.73;;;6.53;;
37937;SDS011;23763;48.130;11.602;2023-12-22T02:37:58;6.53;;;6.33;;
37937;SDS011;23763;48.130;11.602;2023-12-22T02:40:25;6.90;;;6.70;;
37937;SDS011;23763;48.130;11.602;2023-12-22T02:42:52;6.90;;;6.70;;
37937;SDS011;23763;48.130;11.602;2023-12-22T02:45:18;7.10;;;6.90;;
37937;SDS011;23763;48.130;11.602;2023-12-22T02:47:45;7.03;;;6.83;;
37937;SDS011;23763;48.130;11.602;2023-12-22T02:50:11;7.00;;;6.80;;
37937;SDS011;23763;48.130;11.602;2023-12-22T02:52:39;6.43;;;6.23;;
37937;SDS011;23763;48.130;11.602;2023-12-22T02:55:05;7.20;;;7.00;;
37937;SDS011;23763;48.130;11.602;2023-12-22T02:57:31;7.27;;;7.07;;
37937;SDS011;23763;48.130;11.602;2023-12-22T02:59:57;6.77;;;6.57;;
37937;SDS011;23763;48.130;11.602;2023-12-22T03:02:23;7.07;;;6.87;;
37937;SDS011;23763;48.130;11.602;2023-12-22T03:04:49;7.03;;;6.83;;
37937;SDS011;23763;48.130;11.602;2023-12-22T03:07:15;7.17;;;6.87;;
37937;SDS011;23763;48.130;11.602;2023-12-22T03:09:41;6.93;;;6.73;;
37937;SDS011;23763;48.130;11.602;2023-12-22T03:12:07;6.93;;;6.73;;
37937;SDS011;23763;48.130;11.602;2023-12-22T03:14:33;7.00;;;6.80;;
37937;SDS011;23763;48.130;11.602;2023-12-22T03:16:59;6.90;;;6.70;;
37937;SDS011;23763;48.130;11.602;2023-12-22T03:19:25;6.90;;;6.70;;
37937;SDS011;23763;48.130;11.602;2023-12-22T03:21:51;6.67;;;6.47;;
37937;SDS011;23763;48.130;11.602;2023-12-22T03:24:17;7.20;;;6.90;;
37937;SDS011;23763;48.130;11.602;2023-12-22T03:26:44;6.80;;;6.60;;
37937;SDS011;23763;48.130;11.602;2023-12-22T03:29:10;6.70;;;6.50;;
37937;SDS011;23763;48.130;11.602;2023-12-22T03:31:36;6.77;;;6.57;;
37937;SDS011;23763;48.130;11.602;2023-12-22T03:34:02;6.93;;;6.60;;
37937;SDS011;23763;48.130;11.602;2023-12-22T03:36:28;6.77;;;6.57;;
37937;SDS011;23763;48.130;11.602;2023-12-22T03:38:53;6.20;;;6.00;;
37937;SDS011;23763;48.130;11.602;2023-12-22T03:41:19;6.67;;;6.37;;
37937;SDS011;23763;48.130;11.602;2023-12-22T03:43:45;6.10;;;5.90;;
37937;SDS011;23763;48.130;11.602;2023-12-22T03:46:11;6.30;;;6.10;;
37937;SDS011;23763;48.130;11.602;2023-12-22T03:48:36;6.97;;;6.57;;
37937;SDS011;23763;48.130;11.602;2023-12-22T03:51:02;6.60;;;6.40;;
37937;SDS011;23763;48.130;11.602;2023-12-22T03:53:28;6.10;;;5.90;;
37937;SDS011;23763;48.130;11.602;2023-12-22T03:55:54;5.80;;;5.60;;
37937;SDS011;23763;48.130;11.602;2023-12-22T03:58:20;6.37;;;6.17;;
37937;SDS011;23763;48.130;11.602;2023-12-22T04:00:46;6.40;;;6.20;;
37937;SDS011;23763;48.130;11.602;2023-12-22T04:03:12;6.33;;;6.13;;
37937;SDS011;23763;48.130;11.602;2023-12-22T04:05:38;6.07;;;5.87;;
37937;SDS011;23763;48.130;11.602;2023-12-22T04:08:04;6.63;;;6.27;;
37937;SDS011;23763;48.130;11.602;2023-12-22T04:10:30;6.20;;;6.00;;
37937;SDS011;23763;48.130;11.602;2023-12-22T04:12:56;6.07;;;5.87;;
37937;SDS011;23763;48.130;11.602;2023-12-22T04:15:22;6.30;;;6.10;;
37937;SDS011;23763;48.130;11.602;2023-12-22T04:17:47;6.87;;;6.43;;
37937;SDS011;23763;48.130;11.602;2023-12-22T04:20:14;9.73;;;6.60;;
37937;SDS011;23763;48.130;11.602;2023-12-22T04:22:40;6.47;;;6.27;;
37937;SDS011;23763;48.130;11.602;2023-12-22T04:25:05;6.87;;;6.57;;
37937;SDS011;23763;48.130;11.602;2023-12-22T04:27:32;7.50;;;7.17;;
37937;SDS011;23763;48.130;11.602;2023-12-22T04:29:58;7.10;;;6.63;;
37937;SDS011;23763;48.130;11.602;2023-12-22T04:32:24;7.20;;;6.70;;
37937;SDS011;23763;48.130;11.602;2023-12-22T04:34:50;6.93;;;6.73;;
37937;SDS011;23763;48.130;11.602;2023-12-22T04:37:15;6.80;;;6.60;;
37937;SDS011;23763;48.130;11.602;2023-12-22T04:39:41;7.00;;;6.60;;
37937;SDS011;23763;48.130;11.602;2023-12-22T04:42:06;6.57;;;6.23;;
37937;SDS011;23763;48.130;11.602;2023-12-22T04:44:34;6.53;;;6.33;;
37937;SDS011;23763;48.130;11.602;2023-12-22T04:47:00;6.43;;;6.20;;
37937;SDS011;23763;48.130;11.602;2023-12-22T04:49:28;6.97;;;6.67;;
37937;SDS011;23763;48.130;11.602;2023-12-22T04:51:59;6.90;;;6.40;;
37937;SDS011;23763;48.130;11.602;2023-12-22T04:54:25;6.53;;;6.10;;
37937;SDS011;23763;48.130;11.602;2023-12-22T04:57:01;6.60;;;6.23;;
37937;SDS011;23763;48.130;11.602;2023-12-22T04:59:33;6.13;;;5.83;;
37937;SDS011;23763;48.130;11.602;2023-12-22T05:02:02;6.17;;;5.87;;
37937;SDS011;23763;48.130;11.602;2023-12-22T05:04:48;6.70;;;6.43;;
37937;SDS011;23763;48.130;11.602;2023-12-22T05:07:14;7.40;;;6.40;;
37937;SDS011;23763;48.130;11.602;2023-12-22T05:09:41;6.73;;;6.37;;
37937;SDS011;23763;48.130;11.602;2023-12-22T05:12:07;6.13;;;5.93;;
37937;SDS011;23763;48.130;11.602;2023-12-22T05:14:32;6.40;;;6.10;;
37937;SDS011;23763;48.130;11.602;2023-12-22T05:16:58;6.47;;;6.07;;
37937;SDS011;23763;48.130;11.602;2023-12-22T05:19:24;6.33;;;6.03;;
37937;SDS011;23763;48.130;11.602;2023-12-22T05:21:49;6.43;;;6.23;;
37937;SDS011;23763;48.130;11.602;2023-12-22T05:24:17;6.47;;;6.20;;
37937;SDS011;23763;48.130;11.602;2023-12-22T05:26:43;6.77;;;6.27;;
37937;SDS011;23763;48.130;11.602;2023-12-22T05:29:09;6.67;;;6.37;;
37937;SDS011;23763;48.130;11.602;2023-12-22T05:31:34;6.17;;;5.97;;
37937;SDS011;23763;48.130;11.602;2023-12-22T05:34:00;6.63;;;6.23;;
37937;SDS011;23763;48.130;11.602;2023-12-22T05:36:26;6.43;;;6.13;;
37937;SDS011;23763;48.130;11.602;2023-12-22T05:38:51;6.40;;;6.10;;
37937;SDS011;23763;48.130;11.602;2023-12-22T05:41:17;6.60;;;6.40;;
37937;SDS011;23763;48.130;11.602;2023-12-22T05:43:43;6.30;;;6.10;;
37937;SDS011;23763;48.130;11.602;2023-12-22T05:46:08;6.90;;;6.40;;
37937;SDS011;23763;48.130;11.602;2023-12-22T05:48:34;7.13;;;6.40;;
37937;SDS011;23763;48.130;11.602;2023-12-22T05:51:00;7.43;;;7.00;;
37937;SDS011;23763;48.130;11.602;2023-12-22T05:53:28;7.23;;;6.77;;
37937;SDS011;23763;48.130;11.602;2023-12-22T05:55:54;7.30;;;6.90;;
37937;SDS011;23763;48.130;11.602;2023-12-22T05:58:20;7.20;;;6.80;;
37937;SDS011;23763;48.130;11.602;2023-12-22T06:00:45;6.60;;;6.40;;
37937;SDS011;23763;48.130;11.602;2023-12-22T06:03:11;6.67;;;6.40;;
37937;SDS011;23763;48.130;11.602;2023-12-22T06:05:37;6.87;;;6.63;;
37937;SDS011;23763;48.130;11.602;2023-12-22T06:08:03;7.50;;;7.20;;
37937;SDS011;23763;48.130;11.602;2023-12-22T06:10:29;7.43;;;7.10;;
37937;SDS011;23763;48.130;11.602;2023-12-22T06:12:54;7.67;;;7.17;;
37937;SDS011;23763;48.130;11.602;2023-12-22T06:15:22;7.80;;;7.50;;
37937;SDS011;23763;48.130;11.602;2023-12-22T06:17:48;7.90;;;7.60;;
37937;SDS011;23763;48.130;11.602;2023-12-22T06:20:14;8.20;;;7.83;;
37937;SDS011;23763;48.130;11.602;2023-12-22T06:22:39;8.40;;;7.80;;
37937;SDS011;23763;48.130;11.602;2023-12-22T06:25:05;7.70;;;7.17;;
37937;SDS011;23763;48.130;11.602;2023-12-22T06:27:32;7.73;;;7.43;;
37937;SDS011;23763;48.130;11.602;2023-12-22T06:29:58;7.20;;;6.90;;
37937;SDS011;23763;48.130;11.602;2023-12-22T06:32:24;7.13;;;6.73;;
37937;SDS011;23763;48.130;11.602;2023-12-22T06:34:50;7.40;;;7.00;;
37937;SDS011;23763;48.130;11.602;2023-12-22T06:37:15;7.50;;;7.10;;
37937;SDS011;23763;48.130;11.602;2023-12-22T06:39:41;7.80;;;7.30;;
37937;SDS011;23763;48.130;11.602;2023-12-22T06:42:07;7.13;;;6.73;;
37937;SDS011;23763;48.130;11.602;2023-12-22T06:44:36;7.10;;;6.70;;
37937;SDS011;23763;48.130;11.602;2023-12-22T06:47:02;6.87;;;6.50;;
37937;SDS011;23763;48.130;11.602;2023-12-22T06:49:28;7.33;;;6.67;;
37937;SDS011;23763;48.130;11.602;2023-12-22T06:51:53;7.43;;;6.93;;
37937;SDS011;23763;48.130;11.602;2023-12-22T06:54:19;7.00;;;6.50;;
37937;SDS011;23763;48.130;11.602;2023-12-22T06:56:45;6.70;;;6.20;;
37937;SDS011;23763;48.130;11.602;2023-12-22T06:59:10;8.03;;;6.67;;
37937;SDS011;23763;48.130;11.602;2023-12-22T07:01:37;6.90;;;6.60;;
37937;SDS011;23763;48.130;11.602;2023-12-22T07:04:05;6.97;;;6.57;;
37937;SDS011;23763;48.130;11.602;2023-12-22T07:06:32;7.17;;;6.77;;
37937;SDS011;23763;48.130;11.602;2023-12-22T07:11:50;7.00;;;6.47;;
37937;SDS011;23763;48.130;11.602;2023-12-22T07:14:17;6.50;;;6.00;;
37937;SDS011;23763;48.130;11.602;2023-12-22T07:16:43;6.90;;;6.63;;
37937;SDS011;23763;48.130;11.602;2023-12-22T07:19:09;6.33;;;6.00;;
37937;SDS011;23763;48.130;11.602;2023-12-22T07:21:38;6.10;;;5.80;;
37937;SDS011;23763;48.130;11.602;2023-12-22T07:24:04;6.90;;;6.50;;
37937;SDS011;23763;48.130;11.602;2023-12-22T07:26:30;6.90;;;6.30;;
37937;SDS011;23763;48.130;11.602;2023-12-22T07:28:56;7.03;;;6.53;;
37937;SDS011;23763;48.130;11.602;2023-12-22T07:31:22;7.03;;;6.53;;
37937;SDS011;23763;48.130;11.602;2023-12-22T07:33:47;6.90;;;6.50;;
37937;SDS011;23763;48.130;11.602;2023-12-22T07:36:17;6.70;;;6.20;;
37937;SDS011;23763;48.130;11.602;2023-12-22T07:38:46;6.60;;;5.93;;
37937;SDS011;23763;48.130;11.602;2023-12-22T07:41:12;7.20;;;6.70;;
37937;SDS011;23763;48.130;11.602;2023-12-22T07:43:37;7.83;;;7.00;;
37937;SDS011;23763;48.130;11.602;2023-12-22T07:46:03;7.07;;;6.57;;
37937;SDS011;23763;48.130;11.602;2023-12-22T07:48:29;7.40;;;6.80;;
37937;SDS011;23763;48.130;11.602;2023-12-22T07:50:54;7.47;;;6.97;;
37937;SDS011;23763;48.130;11.602;2023-12-22T07:53:20;7.57;;;6.20;;
37937;SDS011;23763;48.130;11.602;2023-12-22T07:55:46;7.43;;;6.93;;
37937;SDS011;23763;48.130;11.602;2023-12-22T07:58:12;7.07;;;6.47;;
37937;SDS011;23763;48.130;11.602;2023-12-22T08:00:38;6.80;;;6.40;;
37937;SDS011;23763;48.130;11.602;2023-12-22T08:03:04;6.60;;;6.10;;
37937;SDS011;23763;48.130;11.602;2023-12-22T08:05:30;6.70;;;6.30;;
37937;SDS011;23763;48.130;11.602;2023-12-22T08:07:56;7.17;;;6.30;;
37937;SDS011;23763;48.130;11.602;2023-12-22T08:10:21;6.70;;;6.20;;
37937;SDS011;23763;48.130;11.602;2023-12-22T08:12:47;6.43;;;5.93;;
37937;SDS011;23763;48.130;11.602;2023-12-22T08:15:12;6.57;;;6.17;;
37937;SDS011;23763;48.130;11.602;2023-12-22T08:17:50;6.20;;;5.80;;
37937;SDS011;23763;48.130;11.602;2023-12-22T08:20:20;7.18;;;6.57;;
37937;SDS011;23763;48.130;11.602;2023-12-22T08:22:47;6.60;;;6.00;;
37937;SDS011;23763;48.130;11.602;2023-12-22T08:25:13;6.20;;;5.63;;
37937;SDS011;23763;48.130;11.602;2023-12-22T08:27:39;7.13;;;6.67;;
37937;SDS011;23763;48.130;11.602;2023-12-22T08:30:06;8.80;;;7.80;;
37937;SDS011;23763;48.130;11.602;2023-12-22T08:32:32;5.93;;;5.73;;
37937;SDS011;23763;48.130;11.602;2023-12-22T08:34:58;6.43;;;5.83;;
37937;SDS011;23763;48.130;11.602;2023-12-22T08:37:23;6.20;;;5.80;;
37937;SDS011;23763;48.130;11.602;2023-12-22T08:39:49;6.77;;;6.30;;
37937;SDS011;23763;48.130;11.602;2023-12-22T08:42:16;8.23;;;7.40;;
37937;SDS011;23763;48.130;11.602;2023-12-22T08:44:41;8.50;;;7.47;;
37937;SDS011;23763;48.130;11.602;2023-12-22T08:47:07;6.57;;;6.00;;
37937;SDS011;23763;48.130;11.602;2023-12-22T08:49:33;5.60;;;5.30;;
37937;SDS011;23763;48.130;11.602;2023-12-22T08:51:59;5.90;;;5.60;;
37937;SDS011;23763;48.130;11.602;2023-12-22T08:54:24;6.30;;;5.80;;
37937;SDS011;23763;48.130;11.602;2023-12-22T08:56:51;6.30;;;5.90;;
37937;SDS011;23763;48.130;11.602;2023-12-22T08:59:17;6.63;;;6.03;;
37937;SDS011;23763;48.130;11.602;2023-12-22T09:01:46;6.22;;;5.68;;
37937;SDS011;23763;48.130;11.602;2023-12-22T09:04:11;5.65;;;5.25;;
37937;SDS011;23763;48.130;11.602;2023-12-22T09:06:37;6.55;;;6.13;;
37937;SDS011;23763;48.130;11.602;2023-12-22T09:09:03;6.18;;;5.85;;
37937;SDS011;23763;48.130;11.602;2023-12-22T09:11:29;6.97;;;5.57;;
37937;SDS011;23763;48.130;11.602;2023-12-22T09:13:55;6.30;;;5.90;;
37937;SDS011;23763;48.130;11.602;2023-12-22T09:16:21;6.82;;;6.22;;
37937;SDS011;23763;48.130;11.602;2023-12-22T09:18:47;7.07;;;6.55;;
37937;SDS011;23763;48.130;11.602;2023-12-22T09:21:13;5.50;;;5.20;;
37937;SDS011;23763;48.130;11.602;2023-12-22T09:23:38;6.45;;;5.95;;
37937;SDS011;23763;48.130;11.602;2023-12-22T09:26:04;5.57;;;5.25;;
37937;SDS011;23763;48.130;11.602;2023-12-22T09:28:30;6.68;;;6.10;;
37937;SDS011;23763;48.130;11.602;2023-12-22T09:30:55;5.80;;;5.32;;
37937;SDS011;23763;48.130;11.602;2023-12-22T09:33:21;6.07;;;5.50;;
37937;SDS011;23763;48.130;11.602;2023-12-22T09:35:48;6.20;;;5.70;;
37937;SDS011;23763;48.130;11.602;2023-12-22T09:38:13;5.88;;;5.47;;
37937;SDS011;23763;48.130;11.602;2023-12-22T09:40:39;5.38;;;5.07;;
37937;SDS011;23763;48.130;11.602;2023-12-22T09:43:08;6.60;;;5.60;;
37937;SDS011;23763;48.130;11.602;2023-12-22T09:45:34;6.07;;;5.50;;
37937;SDS011;23763;48.130;11.602;2023-12-22T09:48:02;7.75;;;5.32;;
37937;SDS011;23763;48.130;11.602;2023-12-22T09:50:30;5.05;;;4.75;;
37937;SDS011;23763;48.130;11.602;2023-12-22T09:52:56;5.07;;;4.63;;
37937;SDS011;23763;48.130;11.602;2023-12-22T09:55:22;4.55;;;4.40;;
37937;SDS011;23763;48.130;11.602;2023-12-22T09:57:50;5.03;;;4.68;;
37937;SDS011;23763;48.130;11.602;2023-12-22T10:00:17;4.38;;;4.18;;
37937;SDS011;23763;48.130;11.602;2023-12-22T10:02:44;4.22;;;3.90;;
37937;SDS011;23763;48.130;11.602;2023-12-22T10:05:13;4.43;;;4.10;;
37937;SDS011;23763;48.130;11.602;2023-12-22T10:07:42;4.15;;;3.95;;
37937;SDS011;23763;48.130;11.602;2023-12-22T10:10:10;4.78;;;4.20;;
37937;SDS011;23763;48.130;11.602;2023-12-22T10:12:38;4.38;;;4.18;;
37937;SDS011;23763;48.130;11.602;2023-12-22T10:15:05;3.80;;;3.67;;
37937;SDS011;23763;48.130;11.602;2023-12-22T10:17:32;4.43;;;4.13;;
37937;SDS011;23763;48.130;11.602;2023-12-22T10:19:58;4.13;;;3.95;;
37937;SDS011;23763;48.130;11.602;2023-12-22T10:22:24;4.50;;;4.30;;
37937;SDS011;23763;48.130;11.602;2023-12-22T10:24:49;4.15;;;3.97;;
37937;SDS011;23763;48.130;11.602;2023-12-22T10:27:18;4.20;;;4.00;;
37937;SDS011;23763;48.130;11.602;2023-12-22T10:29:51;4.40;;;4.20;;
37937;SDS011;23763;48.130;11.602;2023-12-22T10:32:20;4.53;;;4.33;;
37937;SDS011;23763;48.130;11.602;2023-12-22T10:34:46;4.50;;;4.30;;
37937;SDS011;23763;48.130;11.602;2023-12-22T10:37:12;4.50;;;4.20;;
37937;SDS011;23763;48.130;11.602;2023-12-22T10:39:38;4.70;;;4.40;;
37937;SDS011;23763;48.130;11.602;2023-12-22T10:42:04;4.25;;;4.05;;
37937;SDS011;23763;48.130;11.602;2023-12-22T10:44:30;4.70;;;4.50;;
37937;SDS011;23763;48.130;11.602;2023-12-22T10:46:56;4.90;;;4.50;;
37937;SDS011;23763;48.130;11.602;2023-12-22T10:49:23;4.20;;;4.00;;
37937;SDS011;23763;48.130;11.602;2023-12-22T10:51:49;4.50;;;4.27;;
37937;SDS011;23763;48.130;11.602;2023-12-22T10:54:16;5.33;;;5.03;;
37937;SDS011;23763;48.130;11.602;2023-12-22T10:56:42;4.78;;;4.38;;
37937;SDS011;23763;48.130;11.602;2023-12-22T10:59:10;5.00;;;4.60;;
37937;SDS011;23763;48.130;11.602;2023-12-22T11:01:36;4.65;;;4.30;;
37937;SDS011;23763;48.130;11.602;2023-12-22T11:04:09;5.20;;;4.70;;
37937;SDS011;23763;48.130;11.602;2023-12-22T11:06:41;5.30;;;4.83;;
37937;SDS011;23763;48.130;11.602;2023-12-22T11:09:09;4.88;;;4.50;;
37937;SDS011;23763;48.130;11.602;2023-12-22T11:11:36;4.70;;;4.50;;
37937;SDS011;23763;48.130;11.602;2023-12-22T11:14:03;5.00;;;4.70;;
37937;SDS011;23763;48.130;11.602;2023-12-22T11:16:33;4.63;;;4.43;;
37937;SDS011;23763;48.130;11.602;2023-12-22T11:19:00;5.00;;;4.60;;
37937;SDS011;23763;48.130;11.602;2023-12-22T11:21:27;4.90;;;4.53;;
37937;SDS011;23763;48.130;11.602;2023-12-22T11:23:54;4.60;;;4.40;;
37937;SDS011;23763;48.130;11.602;2023-12-22T11:26:20;4.93;;;4.60;;
37937;SDS011;23763;48.130;11.602;2023-12-22T11:28:47;4.90;;;4.60;;
37937;SDS011;23763;48.130;11.602;2023-12-22T11:31:14;5.43;;;4.93;;
37937;SDS011;23763;48.130;11.602;2023-12-22T11:33:44;5.70;;;5.30;;
37937;SDS011;23763;48.130;11.602;2023-12-22T11:36:13;5.63;;;5.30;;
37937;SDS011;23763;48.130;11.602;2023-12-22T11:38:39;5.07;;;4.77;;
37937;SDS011;23763;48.130;11.602;2023-12-22T11:41:06;5.60;;;5.30;;
37937;SDS011;23763;48.130;11.602;2023-12-22T11:43:35;4.90;;;4.50;;
37937;SDS011;23763;48.130;11.602;2023-12-22T11:46:05;5.38;;;4.95;;
37937;SDS011;23763;48.130;11.602;2023-12-22T11:48:31;5.10;;;4.70;;
37937;SDS011;23763;48.130;11.602;2023-12-22T11:50:57;5.15;;;4.70;;
37937;SDS011;23763;48.130;11.602;2023-12-22T11:53:24;5.35;;;5.00;;
37937;SDS011;23763;48.130;11.602;2023-12-22T11:58:35;5.63;;;5.33;;
37937;SDS011;23763;48.130;11.602;2023-12-22T12:03:40;5.07;;;4.77;;
37937;SDS011;23763;48.130;11.602;2023-12-22T12:06:31;6.00;;;5.60;;
37937;SDS011;23763;48.130;11.602;2023-12-22T12:09:08;6.00;;;5.50;;
37937;SDS011;23763;48.130;11.602;2023-12-22T12:14:22;5.70;;;5.30;;
37937;SDS011;23763;48.130;11.602;2023-12-22T12:17:11;5.40;;;5.03;;
37937;SDS011;23763;48.130;11.602;2023-12-22T12:19:40;5.13;;;4.82;;
37937;SDS011;23763;48.130;11.602;2023-12-22T12:22:11;5.47;;;5.18;;
37937;SDS011;23763;48.130;11.602;2023-12-22T12:24:40;6.97;;;6.30;;
37937;SDS011;23763;48.130;11.602;2023-12-22T12:27:10;6.15;;;5.60;;
37937;SDS011;23763;48.130;11.602;2023-12-22T12:29:36;5.15;;;4.85;;
37937;SDS011;23763;48.130;11.602;2023-12-22T12:32:02;5.03;;;4.65;;
37937;SDS011;23763;48.130;11.602;2023-12-22T12:34:29;5.00;;;4.75;;
37937;SDS011;23763;48.130;11.602;2023-12-22T12:36:55;5.13;;;4.82;;
37937;SDS011;23763;48.130;11.602;2023-12-22T12:39:22;4.88;;;4.57;;
37937;SDS011;23763;48.130;11.602;2023-12-22T12:41:53;5.72;;;5.18;;
37937;SDS011;23763;48.130;11.602;2023-12-22T12:44:20;5.25;;;4.95;;
37937;SDS011;23763;48.130;11.602;2023-12-22T12:46:46;5.60;;;5.07;;
37937;SDS011;23763;48.130;11.602;2023-12-22T12:49:12;5.63;;;5.13;;
37937;SDS011;23763;48.130;11.602;2023-12-22T12:51:43;5.43;;;5.10;;
37937;SDS011;23763;48.130;11.602;2023-12-22T12:54:12;5.80;;;5.25;;
37937;SDS011;23763;48.130;11.602;2023-12-22T12:56:39;5.27;;;4.97;;
37937;SDS011;23763;48.130;11.602;2023-12-22T12:59:09;5.35;;;4.65;;
37937;SDS011;23763;48.130;11.602;2023-12-22T13:01:40;4.82;;;4.55;;
37937;SDS011;23763;48.130;11.602;2023-12-22T13:04:06;5.05;;;4.60;;
37937;SDS011;23763;48.130;11.602;2023-12-22T13:06:32;5.43;;;5.03;;
37937;SDS011;23763;48.130;11.602;2023-12-22T13:08:58;5.05;;;4.68;;
37937;SDS011;23763;48.130;11.602;2023-12-22T13:11:28;5.95;;;5.45;;
37937;SDS011;23763;48.130;11.602;2023-12-22T13:13:56;5.05;;;4.75;;
37937;SDS011;23763;48.130;11.602;2023-12-22T13:16:22;5.47;;;4.60;;
37937;SDS011;23763;48.130;11.602;2023-12-22T13:18:54;4.45;;;4.22;;
37937;SDS011;23763;48.130;11.602;2023-12-22T13:21:20;5.57;;;5.05;;
37937;SDS011;23763;48.130;11.602;2023-12-22T13:23:46;4.90;;;4.50;;
37937;SDS011;23763;48.130;11.602;2023-12-22T13:26:18;4.80;;;4.50;;
37937;SDS011;23763;48.130;11.602;2023-12-22T13:28:47;5.07;;;4.78;;
37937;SDS011;23763;48.130;11.602;2023-12-22T13:31:13;5.80;;;5.50;;
37937;SDS011;23763;48.130;11.602;2023-12-22T13:33:39;5.10;;;4.70;;
37937;SDS011;23763;48.130;11.602;2023-12-22T13:36:06;5.68;;;4.60;;
37937;SDS011;23763;48.130;11.602;2023-12-22T13:38:32;5.10;;;4.70;;
37937;SDS011;23763;48.130;11.602;2023-12-22T13:41:00;5.38;;;4.95;;
37937;SDS011;23763;48.130;11.602;2023-12-22T13:43:29;4.88;;;4.65;;
37937;SDS011;23763;48.130;11.602;2023-12-22T13:45:55;5.27;;;4.93;;
37937;SDS011;23763;48.130;11.602;2023-12-22T13:48:22;4.57;;;4.38;;
37937;SDS011;23763;48.130;11.602;2023-12-22T13:50:55;5.38;;;4.97;;
37937;SDS011;23763;48.130;11.602;2023-12-22T13:53:25;4.97;;;4.70;;
37937;SDS011;23763;48.130;11.602;2023-12-22T13:55:58;5.13;;;4.82;;
37937;SDS011;23763;48.130;11.602;2023-12-22T13:58:24;4.90;;;4.60;;
37937;SDS011;23763;48.130;11.602;2023-12-22T14:00:51;6.15;;;5.55;;
37937;SDS011;23763;48.130;11.602;2023-12-22T14:03:17;5.63;;;5.13;;
37937;SDS011;23763;48.130;11.602;2023-12-22T14:05:46;5.30;;;5.00;;
37937;SDS011;23763;48.130;11.602;2023-12-22T14:08:17;5.15;;;4.85;;
37937;SDS011;23763;48.130;11.602;2023-12-22T14:10:46;5.70;;;5.30;;
37937;SDS011;23763;48.130;11.602;2023-12-22T14:13:12;5.80;;;5.20;;
37937;SDS011;23763;48.130;11.602;2023-12-22T14:15:38;6.00;;;5.50;;
37937;SDS011;23763;48.130;11.602;2023-12-22T14:18:04;5.72;;;5.22;;
37937;SDS011;23763;48.130;11.602;2023-12-22T14:20:30;5.47;;;5.28;;
37937;SDS011;23763;48.130;11.602;2023-12-22T14:22:55;5.45;;;5.15;;
37937;SDS011;23763;48.130;11.602;2023-12-22T14:25:21;5.00;;;4.80;;
37937;SDS011;23763;48.130;11.602;2023-12-22T14:27:47;4.90;;;4.60;;
37937;SDS011;23763;48.130;11.602;2023-12-22T14:30:15;5.30;;;5.00;;
37937;SDS011;23763;48.130;11.602;2023-12-22T14:32:42;5.18;;;4.75;;
37937;SDS011;23763;48.130;11.602;2023-12-22T14:35:07;5.40;;;5.00;;
37937;SDS011;23763;48.130;11.602;2023-12-22T14:37:33;5.40;;;5.10;;
37937;SDS011;23763;48.130;11.602;2023-12-22T14:39:59;6.82;;;6.13;;
37937;SDS011;23763;48.130;11.602;2023-12-22T14:42:25;6.07;;;5.65;;
37937;SDS011;23763;48.130;11.602;2023-12-22T14:44:50;4.82;;;4.63;;